createdAt,value
2019-05-19T00:01:42.264Z,32.63
2019-05-19T00:04:11.989Z,30.57
2019-05-19T00:06:41.668Z,33.27
2019-05-19T00:09:11.449Z,32.00
2019-05-19T00:11:41.163Z,33.03
2019-05-19T00:14:10.915Z,34.07
2019-05-19T00:16:40.617Z,30.90
2019-05-19T00:19:10.367Z,30.27
2019-05-19T00:21:40.079Z,32.07
2019-05-19T00:24:09.856Z,29.73
2019-05-19T00:26:39.629Z,31.30
2019-05-19T00:29:10.575Z,31.77
2019-05-19T00:31:40.346Z,31.40
2019-05-19T00:34:10.143Z,30.47
2019-05-19T00:36:40.447Z,30.20
2019-05-19T00:39:10.234Z,32.37
2019-05-19T00:41:40.076Z,28.70
2019-05-19T00:44:09.874Z,32.00
2019-05-19T00:46:39.633Z,30.90
2019-05-19T00:49:09.483Z,30.43
2019-05-19T00:51:39.539Z,30.77
2019-05-19T00:54:09.368Z,32.20
2019-05-19T00:56:39.319Z,31.43
2019-05-19T00:59:10.066Z,30.93
2019-05-19T01:01:39.892Z,28.57
2019-05-19T01:04:09.656Z,33.07
2019-05-19T01:06:39.419Z,30.00
2019-05-19T01:09:10.371Z,29.57
2019-05-19T01:11:40.141Z,29.63
2019-05-19T01:14:09.875Z,30.33
2019-05-19T01:16:39.635Z,30.73
2019-05-19T01:19:09.497Z,32.20
2019-05-19T01:21:39.849Z,29.20
2019-05-19T01:24:10.604Z,31.87
2019-05-19T01:26:40.388Z,31.33
2019-05-19T01:29:10.146Z,31.80
2019-05-19T01:31:41.109Z,28.67
2019-05-19T01:34:10.807Z,29.60
2019-05-19T01:36:40.679Z,29.30
2019-05-19T01:39:10.468Z,31.33
2019-05-19T01:41:40.211Z,33.03
2019-05-19T01:44:09.929Z,27.30
2019-05-19T01:46:39.628Z,29.50
2019-05-19T01:49:09.377Z,27.87
2019-05-19T01:51:39.075Z,28.57
2019-05-19T01:54:08.907Z,27.30
2019-05-19T01:56:38.631Z,29.63
2019-05-19T01:59:08.397Z,28.23
2019-05-19T02:01:38.173Z,26.77
2019-05-19T02:04:07.967Z,30.17
2019-05-19T02:06:37.759Z,28.17
2019-05-19T02:09:07.930Z,27.80
2019-05-19T02:11:37.692Z,26.37
2019-05-19T02:14:07.541Z,25.47
2019-05-19T02:16:37.230Z,24.73
2019-05-19T02:19:07.087Z,24.73
2019-05-19T02:21:36.906Z,24.20
2019-05-19T02:24:06.747Z,26.63
2019-05-19T02:26:36.446Z,24.83
2019-05-19T02:29:06.246Z,24.47
2019-05-19T02:31:36.086Z,25.77
2019-05-19T02:34:05.924Z,27.17
2019-05-19T02:36:35.703Z,24.50
2019-05-19T02:39:06.348Z,23.73
2019-05-19T02:41:37.192Z,27.90
2019-05-19T02:44:08.235Z,24.63
2019-05-19T02:46:40.195Z,24.90
2019-05-19T02:49:11.844Z,26.20
2019-05-19T02:51:44.697Z,26.47
2019-05-19T02:54:15.128Z,24.27
2019-05-19T02:56:47.020Z,23.00
2019-05-19T02:59:18.178Z,22.60
2019-05-19T03:02:10.001Z,22.63
2019-05-19T03:04:39.757Z,23.90
2019-05-19T03:07:09.606Z,23.30
2019-05-19T03:09:39.310Z,22.77
2019-05-19T03:12:09.095Z,23.30
2019-05-19T03:14:38.867Z,22.43
2019-05-19T03:17:08.648Z,22.60
2019-05-19T03:19:39.350Z,26.00
2019-05-19T03:22:09.242Z,25.40
2019-05-19T03:24:38.959Z,26.47
2019-05-19T03:27:08.721Z,24.83
2019-05-19T03:29:42.926Z,29.07
2019-05-19T03:32:23.198Z,26.73
2019-05-19T03:34:53.088Z,26.77
2019-05-19T03:37:22.839Z,24.07
2019-05-19T03:39:52.550Z,24.67
2019-05-19T03:42:22.256Z,25.70
2019-05-19T03:44:51.968Z,24.57
2019-05-19T03:47:21.675Z,24.57
2019-05-19T03:49:51.379Z,23.40
2019-05-19T03:52:21.181Z,20.60
2019-05-19T03:54:51.097Z,23.83
2019-05-19T03:57:20.788Z,25.73
2019-05-19T03:59:50.783Z,22.50
2019-05-19T04:02:20.493Z,23.20
2019-05-19T04:04:50.181Z,23.10
2019-05-19T04:07:19.879Z,22.63
2019-05-19T04:09:49.734Z,22.03
2019-05-19T04:12:19.451Z,22.80
2019-05-19T04:14:49.195Z,22.00
2019-05-19T04:17:18.892Z,23.93
2019-05-19T04:19:48.602Z,20.77
2019-05-19T04:22:18.311Z,21.00
2019-05-19T04:24:48.040Z,24.37
2019-05-19T04:27:17.805Z,22.63
2019-05-19T04:29:48.496Z,22.93
2019-05-19T04:32:18.252Z,23.60
2019-05-19T04:34:48.001Z,22.00
2019-05-19T04:37:17.725Z,22.37
2019-05-19T04:39:47.668Z,22.77
2019-05-19T04:42:17.376Z,22.13
2019-05-19T04:44:47.269Z,22.60
2019-05-19T04:47:16.951Z,23.70
2019-05-19T04:49:46.827Z,21.43
2019-05-19T04:52:16.572Z,22.97
2019-05-19T04:54:46.285Z,25.80
2019-05-19T04:57:15.987Z,23.73
2019-05-19T04:59:45.685Z,24.17
2019-05-19T05:02:15.461Z,24.00
2019-05-19T05:04:45.332Z,22.73
2019-05-19T05:07:15.023Z,23.50
2019-05-19T05:09:44.730Z,22.07
2019-05-19T05:12:14.504Z,21.63
2019-05-19T05:14:44.195Z,20.50
2019-05-19T05:17:13.970Z,20.83
2019-05-19T05:19:43.671Z,23.33
2019-05-19T05:22:21.771Z,21.43
2019-05-19T05:24:44.880Z,23.63
2019-05-19T05:27:14.848Z,23.23
2019-05-19T05:29:44.622Z,26.90
2019-05-19T05:32:14.386Z,24.70
2019-05-19T05:34:44.100Z,21.40
2019-05-19T05:37:14.001Z,24.80
2019-05-19T05:39:43.782Z,23.77
2019-05-19T05:42:13.499Z,24.77
2019-05-19T05:44:43.200Z,26.77
2019-05-19T05:47:12.967Z,24.77
2019-05-19T05:49:42.687Z,24.13
2019-05-19T05:52:12.368Z,23.97
2019-05-19T05:54:42.068Z,24.93
2019-05-19T05:57:11.859Z,24.77
2019-05-19T05:59:41.551Z,24.40
2019-05-19T06:02:11.336Z,20.57
2019-05-19T06:04:41.102Z,21.57
2019-05-19T06:07:10.823Z,24.47
2019-05-19T06:09:40.602Z,23.60
2019-05-19T06:12:10.471Z,25.40
2019-05-19T06:14:40.287Z,23.87
2019-05-19T06:17:09.999Z,23.00
2019-05-19T06:19:39.711Z,21.40
2019-05-19T06:22:09.499Z,24.50
2019-05-19T06:24:39.270Z,22.80
2019-05-19T06:27:09.001Z,22.47
2019-05-19T06:29:39.669Z,23.77
2019-05-19T06:32:22.847Z,20.90
2019-05-19T06:34:52.540Z,20.97
2019-05-19T06:37:22.249Z,17.73
2019-05-19T06:39:51.961Z,20.73
2019-05-19T06:42:21.683Z,20.30
2019-05-19T06:44:51.392Z,20.47
2019-05-19T06:47:21.086Z,19.60
2019-05-19T06:49:50.804Z,19.67
2019-05-19T06:52:20.499Z,18.53
2019-05-19T06:54:50.289Z,18.73
2019-05-19T06:57:20.083Z,20.07
2019-05-19T06:59:49.771Z,19.30
2019-05-19T07:02:19.557Z,20.67
2019-05-19T07:04:49.263Z,18.30
2019-05-19T07:07:18.971Z,19.63
2019-05-19T07:09:57.910Z,21.47
2019-05-19T07:12:20.132Z,19.97
2019-05-19T07:14:49.840Z,17.97
2019-05-19T07:17:19.617Z,19.53
2019-05-19T07:19:49.310Z,20.33
2019-05-19T07:22:19.126Z,19.53
2019-05-19T07:24:48.955Z,19.70
2019-05-19T07:27:19.619Z,19.83
2019-05-19T07:29:49.327Z,18.13
2019-05-19T07:32:19.117Z,20.73
2019-05-19T07:34:48.849Z,18.93
2019-05-19T07:37:18.723Z,19.27
2019-05-19T07:39:48.412Z,18.37
2019-05-19T07:42:18.183Z,18.17
2019-05-19T07:44:47.951Z,18.70
2019-05-19T07:47:17.738Z,19.57
2019-05-19T07:49:47.455Z,18.30
2019-05-19T07:52:17.295Z,19.43
2019-05-19T07:54:47.186Z,16.90
2019-05-19T07:57:16.874Z,17.77
2019-05-19T07:59:46.658Z,17.93
2019-05-19T08:02:16.434Z,17.93
2019-05-19T08:04:46.227Z,15.90
2019-05-19T08:07:16.056Z,18.23
2019-05-19T08:09:45.839Z,18.67
2019-05-19T08:12:15.654Z,18.07
2019-05-19T08:14:45.367Z,18.13
2019-05-19T08:17:15.140Z,18.13
2019-05-19T08:19:44.848Z,18.40
2019-05-19T08:22:14.722Z,17.27
2019-05-19T08:24:44.491Z,17.17
2019-05-19T08:27:14.267Z,16.60
2019-05-19T08:29:43.961Z,18.40
2019-05-19T08:32:13.662Z,17.53
2019-05-19T08:34:43.841Z,16.87
2019-05-19T08:37:13.524Z,16.47
2019-05-19T08:39:43.284Z,18.27
2019-05-19T08:42:13.008Z,17.33
2019-05-19T08:44:42.775Z,17.60
2019-05-19T08:47:12.571Z,17.37
2019-05-19T08:49:42.259Z,17.00
2019-05-19T08:52:12.070Z,17.60
2019-05-19T08:54:41.851Z,16.47
2019-05-19T08:57:11.630Z,18.20
2019-05-19T08:59:41.348Z,17.23
2019-05-19T09:02:11.146Z,15.50
2019-05-19T09:04:40.855Z,17.30
2019-05-19T09:07:10.555Z,16.57
2019-05-19T09:09:40.339Z,18.47
2019-05-19T09:12:12.918Z,16.77
2019-05-19T09:14:43.603Z,16.57
2019-05-19T09:17:13.391Z,17.87
2019-05-19T09:19:43.240Z,16.20
2019-05-19T09:22:13.337Z,17.60
2019-05-19T09:24:43.139Z,16.60
2019-05-19T09:27:12.925Z,16.17
2019-05-19T09:29:42.642Z,18.60
2019-05-19T09:32:12.406Z,16.47
2019-05-19T09:34:42.265Z,16.33
2019-05-19T09:37:11.980Z,17.20
2019-05-19T09:39:41.905Z,16.57
2019-05-19T09:42:11.643Z,16.20
2019-05-19T09:44:41.517Z,13.57
2019-05-19T09:47:11.276Z,16.43
2019-05-19T09:49:40.971Z,13.87
2019-05-19T09:52:10.896Z,14.67
2019-05-19T09:54:45.280Z,15.57
2019-05-19T09:57:12.084Z,16.70
2019-05-19T09:59:41.852Z,16.23
2019-05-19T10:02:11.744Z,15.07
2019-05-19T10:04:41.470Z,14.70
2019-05-19T10:07:11.462Z,15.03
2019-05-19T10:10:01.404Z,14.63
2019-05-19T10:12:31.693Z,14.90
2019-05-19T10:15:02.503Z,14.77
2019-05-19T10:17:32.580Z,15.13
2019-05-19T10:20:02.559Z,15.40
2019-05-19T10:22:32.562Z,16.07
2019-05-19T10:25:21.026Z,15.67
2019-05-19T10:27:36.615Z,15.33
2019-05-19T10:30:08.546Z,14.83
2019-05-19T10:32:38.398Z,16.03
2019-05-19T10:35:08.465Z,14.80
2019-05-19T10:37:38.319Z,14.13
2019-05-19T10:40:08.247Z,15.90
2019-05-19T10:42:37.967Z,15.23
2019-05-19T10:45:08.272Z,14.93
2019-05-19T10:47:38.046Z,15.67
2019-05-19T10:50:08.116Z,16.00
2019-05-19T10:52:37.830Z,14.20
2019-05-19T10:55:07.972Z,14.57
2019-05-19T10:57:37.816Z,15.17
2019-05-19T11:00:08.172Z,15.00
2019-05-19T11:02:37.949Z,15.93
2019-05-19T11:05:11.026Z,17.03
2019-05-19T11:07:39.354Z,17.07
2019-05-19T11:10:09.402Z,14.07
2019-05-19T11:12:39.101Z,16.73
2019-05-19T11:15:09.249Z,15.90
2019-05-19T11:17:39.058Z,16.27
2019-05-19T11:20:09.102Z,15.57
2019-05-19T11:22:38.867Z,16.70
2019-05-19T11:25:08.650Z,15.27
2019-05-19T11:27:38.496Z,16.37
2019-05-19T11:30:08.291Z,15.70
2019-05-19T11:32:38.139Z,17.13
2019-05-19T11:35:08.111Z,14.43
2019-05-19T11:37:39.147Z,15.83
2019-05-19T11:40:09.002Z,17.77
2019-05-19T11:42:38.695Z,15.60
2019-05-19T11:45:08.734Z,15.30
2019-05-19T11:47:38.427Z,16.33
2019-05-19T11:50:08.307Z,17.42
2019-05-19T11:52:38.011Z,16.53
2019-05-19T11:55:07.820Z,15.07
2019-05-19T11:57:37.596Z,15.63
2019-05-19T12:00:08.678Z,15.87
2019-05-19T12:02:38.434Z,15.73
2019-05-19T12:05:09.276Z,14.83
2019-05-19T12:07:38.980Z,16.40
2019-05-19T12:10:09.020Z,16.07
2019-05-19T12:12:38.890Z,15.60
2019-05-19T12:15:09.451Z,15.10
2019-05-19T12:17:39.135Z,15.27
2019-05-19T12:20:08.994Z,15.80
2019-05-19T12:22:38.743Z,15.97
2019-05-19T12:25:20.271Z,16.93
2019-05-19T12:27:49.958Z,14.90
2019-05-19T12:30:21.393Z,16.63
2019-05-19T12:32:51.155Z,15.23
2019-05-19T12:35:20.948Z,14.80
2019-05-19T12:37:50.713Z,16.60
2019-05-19T12:40:22.769Z,15.23
2019-05-19T12:42:52.292Z,15.17
2019-05-19T12:45:22.326Z,16.33
2019-05-19T12:47:52.554Z,15.53
2019-05-19T12:50:22.482Z,16.63
2019-05-19T12:52:52.311Z,17.63
2019-05-19T12:55:22.648Z,17.07
2019-05-19T12:57:52.472Z,17.33
2019-05-19T13:00:22.337Z,17.23
2019-05-19T13:02:52.177Z,17.70
2019-05-19T13:05:22.046Z,16.00
2019-05-19T13:07:51.848Z,16.83
2019-05-19T13:10:21.631Z,17.20
2019-05-19T13:12:51.510Z,17.50
2019-05-19T13:15:21.518Z,17.67
2019-05-19T13:17:51.204Z,18.23
2019-05-19T13:20:21.564Z,17.23
2019-05-19T13:22:51.366Z,18.93
2019-05-19T13:25:21.083Z,17.07
2019-05-19T13:27:51.081Z,17.90
2019-05-19T13:30:21.094Z,16.50
2019-05-19T13:32:50.837Z,17.60
2019-05-19T13:35:32.506Z,19.00
2019-05-19T13:38:02.241Z,17.30
2019-05-19T13:40:31.943Z,18.43
2019-05-19T13:43:02.867Z,17.90
2019-05-19T13:45:32.655Z,17.17
2019-05-19T13:48:02.350Z,17.77
2019-05-19T13:50:32.071Z,17.80
2019-05-19T13:53:01.834Z,18.17
2019-05-19T13:55:31.595Z,18.90
2019-05-19T13:58:03.525Z,16.57
2019-05-19T14:00:32.665Z,18.27
2019-05-19T14:03:02.366Z,15.63
2019-05-19T14:05:32.294Z,18.07
2019-05-19T14:08:02.014Z,16.13
2019-05-19T14:10:31.855Z,17.13
2019-05-19T14:13:02.540Z,16.70
2019-05-19T14:15:32.218Z,16.77
2019-05-19T14:18:02.023Z,15.90
2019-05-19T14:20:31.704Z,15.67
2019-05-19T14:23:01.483Z,14.73
2019-05-19T14:25:31.223Z,15.83
2019-05-19T14:28:01.156Z,16.03
2019-05-19T14:30:30.959Z,13.97
2019-05-19T14:33:00.671Z,15.23
2019-05-19T14:35:30.442Z,14.63
2019-05-19T14:38:00.136Z,16.33
2019-05-19T14:40:29.896Z,15.87
2019-05-19T14:43:01.796Z,15.40
2019-05-19T14:45:31.798Z,14.47
2019-05-19T14:48:01.649Z,15.23
2019-05-19T14:50:34.936Z,14.67
2019-05-19T14:53:04.751Z,16.83
2019-05-19T14:55:34.535Z,16.10
2019-05-19T14:58:04.348Z,16.07
2019-05-19T15:00:34.082Z,16.03
2019-05-19T15:03:03.838Z,15.67
2019-05-19T15:05:33.690Z,15.93
2019-05-19T15:08:03.478Z,15.77
2019-05-19T15:10:33.242Z,15.50
2019-05-19T15:13:03.025Z,16.37
2019-05-19T15:15:32.855Z,15.00
2019-05-19T15:18:02.709Z,17.37
2019-05-19T15:20:32.504Z,16.67
2019-05-19T15:23:02.402Z,15.63
2019-05-19T15:25:32.089Z,15.07
2019-05-19T15:28:05.201Z,14.93
2019-05-19T15:30:33.250Z,16.13
2019-05-19T15:33:03.025Z,17.37
2019-05-19T15:35:32.859Z,16.33
2019-05-19T15:38:02.642Z,15.47
2019-05-19T15:40:32.492Z,15.20
2019-05-19T15:43:02.398Z,14.50
2019-05-19T15:45:32.323Z,16.37
2019-05-19T15:48:02.128Z,15.60
2019-05-19T15:50:31.896Z,16.03
2019-05-19T15:53:01.598Z,16.07
2019-05-19T15:55:31.383Z,14.83
2019-05-19T15:58:15.525Z,14.17
2019-05-19T16:00:32.695Z,16.37
2019-05-19T16:03:02.426Z,15.80
2019-05-19T16:05:33.205Z,15.07
2019-05-19T16:08:02.907Z,16.50
2019-05-19T16:10:32.707Z,16.97
2019-05-19T16:13:02.545Z,15.77
2019-05-19T16:15:32.563Z,15.53
2019-05-19T16:18:02.369Z,14.93
2019-05-19T16:20:34.446Z,15.47
2019-05-19T16:23:04.239Z,15.77
2019-05-19T16:25:33.937Z,18.90
2019-05-19T16:28:03.770Z,15.30
2019-05-19T16:30:33.479Z,16.63
2019-05-19T16:33:03.262Z,14.87
2019-05-19T16:35:32.989Z,15.07
2019-05-19T16:38:02.715Z,13.83
2019-05-19T16:40:32.508Z,13.60
2019-05-19T16:43:02.599Z,14.33
2019-05-19T16:45:33.519Z,13.77
2019-05-19T16:48:03.208Z,13.77
2019-05-19T16:50:32.904Z,14.70
2019-05-19T16:53:02.681Z,12.57
2019-05-19T16:55:34.186Z,15.97
2019-05-19T16:58:19.534Z,14.47
2019-05-19T17:00:35.749Z,14.60
2019-05-19T17:03:05.439Z,14.10
2019-05-19T17:05:35.652Z,14.00
2019-05-19T17:08:05.591Z,15.17
2019-05-19T17:10:35.376Z,12.13
2019-05-19T17:13:05.078Z,12.13
2019-05-19T17:15:34.922Z,11.27
2019-05-19T17:18:08.006Z,11.37
2019-05-19T17:20:36.382Z,11.60
2019-05-19T17:23:07.267Z,13.60
2019-05-19T17:25:36.978Z,11.67
2019-05-19T17:28:06.672Z,9.60
2019-05-19T17:30:36.455Z,10.07
2019-05-19T17:33:06.307Z,8.97
2019-05-19T17:35:36.012Z,9.87
2019-05-19T17:38:05.743Z,10.40
2019-05-19T17:40:35.435Z,10.17
2019-05-19T17:43:05.417Z,9.27
2019-05-19T17:45:35.170Z,8.70
2019-05-19T17:48:09.911Z,9.20
2019-05-19T17:50:36.611Z,8.70
2019-05-19T17:53:06.513Z,10.23
2019-05-19T17:55:36.356Z,9.40
2019-05-19T17:58:06.826Z,10.70
2019-05-19T18:00:41.038Z,10.67
2019-05-19T18:03:11.427Z,9.97
2019-05-19T18:05:41.165Z,10.50
2019-05-19T18:08:11.394Z,10.20
2019-05-19T18:10:41.134Z,8.67
2019-05-19T18:13:11.100Z,9.33
2019-05-19T18:15:40.939Z,8.43
2019-05-19T18:18:10.844Z,9.03
2019-05-19T18:20:40.547Z,9.57
2019-05-19T18:23:10.399Z,9.90
2019-05-19T18:25:40.092Z,9.77
2019-05-19T18:28:09.895Z,8.90
2019-05-19T18:30:39.731Z,10.27
2019-05-19T18:33:09.579Z,9.03
2019-05-19T18:35:39.467Z,8.63
2019-05-19T18:38:09.421Z,8.27
2019-05-19T18:40:39.203Z,8.40
2019-05-19T18:43:09.015Z,8.80
2019-05-19T18:45:38.797Z,9.20
2019-05-19T18:48:09.799Z,7.73
2019-05-19T18:50:39.505Z,8.53
2019-05-19T18:53:09.336Z,9.20
2019-05-19T18:55:39.051Z,8.63
2019-05-19T18:58:08.834Z,7.63
2019-05-19T19:00:39.058Z,8.10
2019-05-19T19:03:09.087Z,8.40
2019-05-19T19:05:38.826Z,6.80
2019-05-19T19:08:08.585Z,8.30
2019-05-19T19:10:38.286Z,7.53
2019-05-19T19:13:08.148Z,8.33
2019-05-19T19:15:37.899Z,8.43
2019-05-19T19:18:07.645Z,9.93
2019-05-19T19:20:37.408Z,8.03
2019-05-19T19:23:07.242Z,6.83
2019-05-19T19:25:37.020Z,6.87
2019-05-19T19:28:06.794Z,7.73
2019-05-19T19:30:36.752Z,7.70
2019-05-19T19:33:06.461Z,7.30
2019-05-19T19:35:39.086Z,8.33
2019-05-19T19:38:07.819Z,7.27
2019-05-19T19:40:37.620Z,7.90
2019-05-19T19:43:08.379Z,6.90
2019-05-19T19:45:38.124Z,7.37
2019-05-19T19:48:08.091Z,8.20
2019-05-19T19:50:37.898Z,8.57
2019-05-19T19:53:07.754Z,8.93
2019-05-19T19:55:37.601Z,7.90
2019-05-19T19:58:07.391Z,8.23
2019-05-19T20:00:42.616Z,8.07
2019-05-19T20:03:12.577Z,7.57
2019-05-19T20:05:44.018Z,8.53
2019-05-19T20:08:13.891Z,9.23
2019-05-19T20:10:43.800Z,7.50
2019-05-19T20:13:13.550Z,7.70
2019-05-19T20:15:43.339Z,8.07
2019-05-19T20:18:13.148Z,7.50
2019-05-19T20:20:42.878Z,7.77
2019-05-19T20:23:12.708Z,8.07
2019-05-19T20:25:42.535Z,7.30
2019-05-19T20:28:16.039Z,7.97
2019-05-19T20:30:45.822Z,8.87
2019-05-19T20:33:15.599Z,8.43
2019-05-19T20:35:45.387Z,7.40
2019-05-19T20:38:15.139Z,7.77
2019-05-19T20:40:44.921Z,7.53
2019-05-19T20:43:14.657Z,8.40
2019-05-19T20:45:44.472Z,7.17
2019-05-19T20:48:14.241Z,7.07
2019-05-19T20:50:44.026Z,8.43
2019-05-19T20:53:13.710Z,7.90
2019-05-19T20:55:43.431Z,7.47
2019-05-19T20:58:13.190Z,7.93
2019-05-19T21:00:50.334Z,9.07
2019-05-19T21:03:14.412Z,7.80
2019-05-19T21:05:44.156Z,8.97
2019-05-19T21:08:13.925Z,8.30
2019-05-19T21:10:43.640Z,9.03
2019-05-19T21:13:13.398Z,8.37
2019-05-19T21:15:43.277Z,8.03
2019-05-19T21:18:13.056Z,9.10
2019-05-19T21:20:42.802Z,8.37
2019-05-19T21:23:12.697Z,8.73
2019-05-19T21:25:42.391Z,8.43
2019-05-19T21:28:12.257Z,8.33
2019-05-19T21:30:41.955Z,9.13
2019-05-19T21:33:11.787Z,8.53
2019-05-19T21:35:41.595Z,8.30
2019-05-19T21:38:11.546Z,9.33
2019-05-19T21:40:41.271Z,10.73
2019-05-19T21:43:11.151Z,9.17
2019-05-19T21:45:40.867Z,8.43
2019-05-19T21:48:10.558Z,9.33
2019-05-19T21:50:40.293Z,9.07
2019-05-19T21:53:09.991Z,11.67
2019-05-19T21:55:40.917Z,10.10
2019-05-19T21:58:10.694Z,11.07
2019-05-19T22:00:40.510Z,10.93
2019-05-19T22:03:10.222Z,10.40
2019-05-19T22:05:52.568Z,10.43
2019-05-19T22:08:14.701Z,10.20
2019-05-19T22:10:45.378Z,10.83
2019-05-19T22:13:15.165Z,10.30
2019-05-19T22:15:44.923Z,12.33
2019-05-19T22:18:14.647Z,10.53
2019-05-19T22:20:44.366Z,12.10
2019-05-19T22:23:14.083Z,13.57
2019-05-19T22:25:43.871Z,11.70
2019-05-19T22:28:13.571Z,11.77
2019-05-19T22:30:43.378Z,12.03
2019-05-19T22:33:13.202Z,12.43
2019-05-19T22:35:42.970Z,11.60
2019-05-19T22:38:12.747Z,11.87
2019-05-19T22:40:43.736Z,12.53
2019-05-19T22:43:13.446Z,11.83
2019-05-19T22:45:43.249Z,10.23
2019-05-19T22:48:12.943Z,13.20
2019-05-19T22:50:42.734Z,12.77
2019-05-19T22:53:12.447Z,12.70
2019-05-19T22:55:42.271Z,10.90
2019-05-19T22:58:11.989Z,10.30
2019-05-19T23:00:41.735Z,9.97
2019-05-19T23:03:11.439Z,9.97
2019-05-19T23:05:41.231Z,11.00
2019-05-19T23:08:11.032Z,11.10
2019-05-19T23:10:40.874Z,10.10
2019-05-19T23:13:10.568Z,11.53
2019-05-19T23:15:40.402Z,11.63
2019-05-19T23:18:10.323Z,11.27
2019-05-19T23:20:40.159Z,12.77
2019-05-19T23:23:10.000Z,11.63
2019-05-19T23:25:39.715Z,11.93
2019-05-19T23:28:09.479Z,11.90
2019-05-19T23:30:39.154Z,11.93
2019-05-19T23:33:09.919Z,13.87
2019-05-19T23:35:39.605Z,13.97
2019-05-19T23:38:09.386Z,13.40
2019-05-19T23:40:39.260Z,12.80
2019-05-19T23:43:08.948Z,14.70
2019-05-19T23:45:39.703Z,13.70
2019-05-19T23:48:09.411Z,14.43
2019-05-19T23:50:39.203Z,13.40
2019-05-19T23:53:09.951Z,13.33
2019-05-19T23:55:39.645Z,13.37
2019-05-19T23:58:09.429Z,14.57
